sensor_id;sensor_type;location;lat;lon;timestamp;temperature;humidity
67529;DHT22;54366;51.980;5.856;2022-09-03T00:02:31;20.40;40.70
67529;DHT22;54366;51.980;5.856;2022-09-03T00:07:55;20.30;41.00
67529;DHT22;54366;51.980;5.856;2022-09-03T00:13:15;20.30;40.90
67529;DHT22;54366;51.980;5.856;2022-09-03T00:15:42;20.20;41.00
67529;DHT22;54366;51.980;5.856;2022-09-03T00:18:30;20.20;41.00
67529;DHT22;54366;51.980;5.856;2022-09-03T00:21:03;20.20;41.20
67529;DHT22;54366;51.980;5.856;2022-09-03T00:23:36;20.20;41.20
67529;DHT22;54366;51.980;5.856;2022-09-03T00:28:50;20.10;41.40
67529;DHT22;54366;51.980;5.856;2022-09-03T00:31:33;20.10;41.70
67529;DHT22;54366;51.980;5.856;2022-09-03T00:34:33;20.10;41.60
67529;DHT22;54366;51.980;5.856;2022-09-03T00:37:00;20.00;41.80
67529;DHT22;54366;51.980;5.856;2022-09-03T00:39:28;20.00;41.70
67529;DHT22;54366;51.980;5.856;2022-09-03T00:47:43;19.90;42.10
67529;DHT22;54366;51.980;5.856;2022-09-03T00:50:25;19.90;42.10
67529;DHT22;54366;51.980;5.856;2022-09-03T00:55:51;19.80;42.40
67529;DHT22;54366;51.980;5.856;2022-09-03T01:01:13;19.80;42.50
67529;DHT22;54366;51.980;5.856;2022-09-03T01:06:48;19.70;42.70
67529;DHT22;54366;51.980;5.856;2022-09-03T01:09:25;19.60;42.60
67529;DHT22;54366;51.980;5.856;2022-09-03T01:14:51;19.60;43.00
67529;DHT22;54366;51.980;5.856;2022-09-03T01:17:57;19.60;43.20
67529;DHT22;54366;51.980;5.856;2022-09-03T01:23:51;19.50;43.40
67529;DHT22;54366;51.980;5.856;2022-09-03T01:29:24;19.50;43.50
67529;DHT22;54366;51.980;5.856;2022-09-03T01:50:54;19.20;44.10
67529;DHT22;54366;51.980;5.856;2022-09-03T01:59:14;19.10;44.50
67529;DHT22;54366;51.980;5.856;2022-09-03T02:02:02;19.10;44.60
67529;DHT22;54366;51.980;5.856;2022-09-03T02:04:28;19.10;44.50
67529;DHT22;54366;51.980;5.856;2022-09-03T02:06:59;19.10;44.40
67529;DHT22;54366;51.980;5.856;2022-09-03T02:09:26;19.00;44.50
67529;DHT22;54366;51.980;5.856;2022-09-03T02:12:34;19.10;44.60
67529;DHT22;54366;51.980;5.856;2022-09-03T02:14:52;19.00;44.80
67529;DHT22;54366;51.980;5.856;2022-09-03T02:17:19;19.00;44.70
67529;DHT22;54366;51.980;5.856;2022-09-03T02:19:46;19.00;44.60
67529;DHT22;54366;51.980;5.856;2022-09-03T02:22:12;19.00;44.80
67529;DHT22;54366;51.980;5.856;2022-09-03T02:24:39;18.90;44.70
67529;DHT22;54366;51.980;5.856;2022-09-03T02:27:05;18.90;44.90
67529;DHT22;54366;51.980;5.856;2022-09-03T02:29:31;18.90;44.90
67529;DHT22;54366;51.980;5.856;2022-09-03T02:31:58;18.80;44.80
67529;DHT22;54366;51.980;5.856;2022-09-03T02:34:24;18.80;45.00
67529;DHT22;54366;51.980;5.856;2022-09-03T02:36:50;18.80;45.10
67529;DHT22;54366;51.980;5.856;2022-09-03T02:39:17;18.80;45.10
67529;DHT22;54366;51.980;5.856;2022-09-03T02:41:55;18.80;45.20
67529;DHT22;54366;51.980;5.856;2022-09-03T02:44:29;18.80;45.40
67529;DHT22;54366;51.980;5.856;2022-09-03T02:47:01;18.70;45.20
67529;DHT22;54366;51.980;5.856;2022-09-03T02:49:28;18.70;45.30
67529;DHT22;54366;51.980;5.856;2022-09-03T02:52:04;18.70;45.30
67529;DHT22;54366;51.980;5.856;2022-09-03T02:54:32;18.70;45.60
67529;DHT22;54366;51.980;5.856;2022-09-03T02:57:01;18.70;45.50
67529;DHT22;54366;51.980;5.856;2022-09-03T02:59:28;18.60;46.10
67529;DHT22;54366;51.980;5.856;2022-09-03T03:01:54;18.70;45.60
67529;DHT22;54366;51.980;5.856;2022-09-03T03:04:21;18.60;45.60
67529;DHT22;54366;51.980;5.856;2022-09-03T03:06:47;18.60;45.60
67529;DHT22;54366;51.980;5.856;2022-09-03T03:09:16;18.60;45.90
67529;DHT22;54366;51.980;5.856;2022-09-03T03:11:42;18.50;45.80
67529;DHT22;54366;51.980;5.856;2022-09-03T03:14:09;18.50;45.90
67529;DHT22;54366;51.980;5.856;2022-09-03T03:16:35;18.50;45.90
67529;DHT22;54366;51.980;5.856;2022-09-03T03:19:02;18.50;45.90
67529;DHT22;54366;51.980;5.856;2022-09-03T03:21:28;18.40;45.80
67529;DHT22;54366;51.980;5.856;2022-09-03T03:23:54;18.50;45.90
67529;DHT22;54366;51.980;5.856;2022-09-03T03:26:21;18.40;45.90
67529;DHT22;54366;51.980;5.856;2022-09-03T03:28:49;18.40;45.90
67529;DHT22;54366;51.980;5.856;2022-09-03T03:31:18;18.40;46.00
67529;DHT22;54366;51.980;5.856;2022-09-03T03:33:59;18.40;46.10
67529;DHT22;54366;51.980;5.856;2022-09-03T03:36:29;18.40;46.20
67529;DHT22;54366;51.980;5.856;2022-09-03T03:38:57;18.40;46.20
67529;DHT22;54366;51.980;5.856;2022-09-03T03:41:26;18.30;46.30
67529;DHT22;54366;51.980;5.856;2022-09-03T03:43:54;18.30;46.30
67529;DHT22;54366;51.980;5.856;2022-09-03T03:46:22;18.30;46.40
67529;DHT22;54366;51.980;5.856;2022-09-03T03:48:52;18.30;46.30
67529;DHT22;54366;51.980;5.856;2022-09-03T03:51:18;18.30;46.40
67529;DHT22;54366;51.980;5.856;2022-09-03T03:53:45;18.20;46.50
67529;DHT22;54366;51.980;5.856;2022-09-03T03:56:13;18.20;46.50
67529;DHT22;54366;51.980;5.856;2022-09-03T03:58:40;18.20;46.60
67529;DHT22;54366;51.980;5.856;2022-09-03T04:03:37;18.20;46.90
67529;DHT22;54366;51.980;5.856;2022-09-03T04:06:04;18.20;46.60
67529;DHT22;54366;51.980;5.856;2022-09-03T04:08:37;18.10;46.70
67529;DHT22;54366;51.980;5.856;2022-09-03T04:11:05;18.10;46.60
67529;DHT22;54366;51.980;5.856;2022-09-03T04:13:34;18.10;46.50
67529;DHT22;54366;51.980;5.856;2022-09-03T04:16:05;18.10;46.60
67529;DHT22;54366;51.980;5.856;2022-09-03T04:18:33;18.10;46.80
67529;DHT22;54366;51.980;5.856;2022-09-03T04:23:31;18.00;46.80
67529;DHT22;54366;51.980;5.856;2022-09-03T04:25:58;18.00;46.80
67529;DHT22;54366;51.980;5.856;2022-09-03T04:28:25;18.00;47.00
67529;DHT22;54366;51.980;5.856;2022-09-03T04:30:51;18.00;47.00
67529;DHT22;54366;51.980;5.856;2022-09-03T04:33:18;17.90;46.90
67529;DHT22;54366;51.980;5.856;2022-09-03T04:35:45;17.90;46.90
67529;DHT22;54366;51.980;5.856;2022-09-03T04:38:11;17.90;46.90
67529;DHT22;54366;51.980;5.856;2022-09-03T04:40:37;17.90;47.60
67529;DHT22;54366;51.980;5.856;2022-09-03T04:43:04;17.80;47.20
67529;DHT22;54366;51.980;5.856;2022-09-03T04:45:30;17.80;47.20
67529;DHT22;54366;51.980;5.856;2022-09-03T04:47:58;17.80;47.30
67529;DHT22;54366;51.980;5.856;2022-09-03T04:50:24;17.80;47.40
67529;DHT22;54366;51.980;5.856;2022-09-03T04:53:02;17.70;47.40
67529;DHT22;54366;51.980;5.856;2022-09-03T04:55:36;17.70;47.50
67529;DHT22;54366;51.980;5.856;2022-09-03T04:58:03;17.70;47.40
67529;DHT22;54366;51.980;5.856;2022-09-03T05:00:30;17.70;47.50
67529;DHT22;54366;51.980;5.856;2022-09-03T05:02:59;17.60;47.40
67529;DHT22;54366;51.980;5.856;2022-09-03T05:05:25;17.70;47.50
67529;DHT22;54366;51.980;5.856;2022-09-03T05:07:51;17.60;47.50
67529;DHT22;54366;51.980;5.856;2022-09-03T05:10:18;17.60;47.40
67529;DHT22;54366;51.980;5.856;2022-09-03T05:12:59;17.60;47.40
67529;DHT22;54366;51.980;5.856;2022-09-03T05:15:27;17.60;47.40
67529;DHT22;54366;51.980;5.856;2022-09-03T05:17:58;17.60;47.70
67529;DHT22;54366;51.980;5.856;2022-09-03T05:20:25;17.60;47.70
67529;DHT22;54366;51.980;5.856;2022-09-03T05:22:51;17.50;47.70
67529;DHT22;54366;51.980;5.856;2022-09-03T05:25:18;17.50;47.70
67529;DHT22;54366;51.980;5.856;2022-09-03T05:27:44;17.50;47.70
67529;DHT22;54366;51.980;5.856;2022-09-03T05:30:12;17.50;47.80
67529;DHT22;54366;51.980;5.856;2022-09-03T05:32:39;17.50;47.80
67529;DHT22;54366;51.980;5.856;2022-09-03T05:35:06;17.50;47.70
67529;DHT22;54366;51.980;5.856;2022-09-03T05:37:33;17.50;47.70
67529;DHT22;54366;51.980;5.856;2022-09-03T05:39:59;17.50;47.70
67529;DHT22;54366;51.980;5.856;2022-09-03T05:42:25;17.60;48.10
67529;DHT22;54366;51.980;5.856;2022-09-03T05:44:52;17.50;47.90
67529;DHT22;54366;51.980;5.856;2022-09-03T05:47:19;17.50;47.90
67529;DHT22;54366;51.980;5.856;2022-09-03T05:49:45;17.60;48.10
67529;DHT22;54366;51.980;5.856;2022-09-03T05:52:12;17.50;48.10
67529;DHT22;54366;51.980;5.856;2022-09-03T05:54:38;17.60;48.00
67529;DHT22;54366;51.980;5.856;2022-09-03T05:57:05;17.60;48.20
67529;DHT22;54366;51.980;5.856;2022-09-03T05:59:31;17.70;48.40
67529;DHT22;54366;51.980;5.856;2022-09-03T06:01:57;17.60;48.20
67529;DHT22;54366;51.980;5.856;2022-09-03T06:04:23;17.60;48.10
67529;DHT22;54366;51.980;5.856;2022-09-03T06:06:50;17.60;48.20
67529;DHT22;54366;51.980;5.856;2022-09-03T06:09:18;17.70;48.20
67529;DHT22;54366;51.980;5.856;2022-09-03T06:11:46;17.70;48.00
67529;DHT22;54366;51.980;5.856;2022-09-03T06:14:14;17.70;48.10
67529;DHT22;54366;51.980;5.856;2022-09-03T06:16:42;17.70;48.20
67529;DHT22;54366;51.980;5.856;2022-09-03T06:19:09;17.70;48.20
67529;DHT22;54366;51.980;5.856;2022-09-03T06:21:41;17.70;48.20
67529;DHT22;54366;51.980;5.856;2022-09-03T06:24:09;17.80;48.10
67529;DHT22;54366;51.980;5.856;2022-09-03T06:26:37;17.80;48.30
67529;DHT22;54366;51.980;5.856;2022-09-03T06:29:03;17.80;48.30
67529;DHT22;54366;51.980;5.856;2022-09-03T06:31:30;17.80;48.30
67529;DHT22;54366;51.980;5.856;2022-09-03T06:33:56;17.90;48.30
67529;DHT22;54366;51.980;5.856;2022-09-03T06:36:23;17.90;48.40
67529;DHT22;54366;51.980;5.856;2022-09-03T06:38:53;17.90;48.40
67529;DHT22;54366;51.980;5.856;2022-09-03T06:41:22;17.90;48.30
67529;DHT22;54366;51.980;5.856;2022-09-03T06:43:57;17.90;48.20
67529;DHT22;54366;51.980;5.856;2022-09-03T06:46:34;18.00;48.20
67529;DHT22;54366;51.980;5.856;2022-09-03T06:49:01;18.00;48.30
67529;DHT22;54366;51.980;5.856;2022-09-03T06:51:29;18.10;48.20
67529;DHT22;54366;51.980;5.856;2022-09-03T06:54:01;18.20;48.10
67529;DHT22;54366;51.980;5.856;2022-09-03T06:56:28;18.30;48.10
67529;DHT22;54366;51.980;5.856;2022-09-03T06:58:56;18.30;47.90
67529;DHT22;54366;51.980;5.856;2022-09-03T07:01:25;18.40;47.80
67529;DHT22;54366;51.980;5.856;2022-09-03T07:03:54;18.50;47.70
67529;DHT22;54366;51.980;5.856;2022-09-03T07:06:25;18.50;47.50
67529;DHT22;54366;51.980;5.856;2022-09-03T07:08:52;18.60;47.50
67529;DHT22;54366;51.980;5.856;2022-09-03T07:11:21;18.70;47.40
67529;DHT22;54366;51.980;5.856;2022-09-03T07:13:49;18.80;47.30
67529;DHT22;54366;51.980;5.856;2022-09-03T07:16:27;18.90;47.20
67529;DHT22;54366;51.980;5.856;2022-09-03T07:18:55;19.00;47.10
67529;DHT22;54366;51.980;5.856;2022-09-03T07:21:26;19.10;47.00
67529;DHT22;54366;51.980;5.856;2022-09-03T07:23:53;19.20;46.90
67529;DHT22;54366;51.980;5.856;2022-09-03T07:26:25;19.30;46.80
67529;DHT22;54366;51.980;5.856;2022-09-03T07:28:53;19.40;46.70
67529;DHT22;54366;51.980;5.856;2022-09-03T07:31:27;19.50;46.50
67529;DHT22;54366;51.980;5.856;2022-09-03T07:33:54;19.50;46.20
67529;DHT22;54366;51.980;5.856;2022-09-03T07:36:22;19.60;46.00
67529;DHT22;54366;51.980;5.856;2022-09-03T07:38:49;19.70;46.00
67529;DHT22;54366;51.980;5.856;2022-09-03T07:41:15;19.80;46.30
67529;DHT22;54366;51.980;5.856;2022-09-03T07:43:45;19.80;45.80
67529;DHT22;54366;51.980;5.856;2022-09-03T07:46:16;19.90;45.50
67529;DHT22;54366;51.980;5.856;2022-09-03T07:48:58;20.00;45.70
67529;DHT22;54366;51.980;5.856;2022-09-03T07:51:27;20.10;45.50
67529;DHT22;54366;51.980;5.856;2022-09-03T07:53:55;20.20;45.20
67529;DHT22;54366;51.980;5.856;2022-09-03T07:56:23;20.30;45.00
67529;DHT22;54366;51.980;5.856;2022-09-03T07:58:50;20.30;44.80
67529;DHT22;54366;51.980;5.856;2022-09-03T08:01:21;20.50;44.90
67529;DHT22;54366;51.980;5.856;2022-09-03T08:03:51;20.50;44.70
67529;DHT22;54366;51.980;5.856;2022-09-03T08:06:20;20.60;44.30
67529;DHT22;54366;51.980;5.856;2022-09-03T08:08:47;20.70;44.00
67529;DHT22;54366;51.980;5.856;2022-09-03T08:11:16;20.80;44.10
67529;DHT22;54366;51.980;5.856;2022-09-03T08:13:47;20.90;43.90
67529;DHT22;54366;51.980;5.856;2022-09-03T08:16:16;21.00;44.20
67529;DHT22;54366;51.980;5.856;2022-09-03T08:18:43;21.10;43.70
67529;DHT22;54366;51.980;5.856;2022-09-03T08:21:12;21.20;43.70
67529;DHT22;54366;51.980;5.856;2022-09-03T08:23:42;21.30;43.40
67529;DHT22;54366;51.980;5.856;2022-09-03T08:26:09;21.50;43.40
67529;DHT22;54366;51.980;5.856;2022-09-03T08:28:37;21.60;43.10
67529;DHT22;54366;51.980;5.856;2022-09-03T08:31:22;21.80;42.50
67529;DHT22;54366;51.980;5.856;2022-09-03T08:33:52;21.90;42.40
67529;DHT22;54366;51.980;5.856;2022-09-03T08:36:23;22.00;42.00
67529;DHT22;54366;51.980;5.856;2022-09-03T08:38:53;22.10;42.00
67529;DHT22;54366;51.980;5.856;2022-09-03T08:44:29;22.40;41.40
67529;DHT22;54366;51.980;5.856;2022-09-03T08:47:04;22.50;41.30
67529;DHT22;54366;51.980;5.856;2022-09-03T08:52:01;22.70;40.60
67529;DHT22;54366;51.980;5.856;2022-09-03T08:54:30;22.80;40.30
67529;DHT22;54366;51.980;5.856;2022-09-03T08:57:01;23.00;40.20
67529;DHT22;54366;51.980;5.856;2022-09-03T08:59:31;23.10;40.00
67529;DHT22;54366;51.980;5.856;2022-09-03T09:02:32;23.20;39.40
67529;DHT22;54366;51.980;5.856;2022-09-03T09:05:11;23.30;39.10
67529;DHT22;54366;51.980;5.856;2022-09-03T09:08:11;23.50;39.30
67529;DHT22;54366;51.980;5.856;2022-09-03T09:10:42;23.60;38.70
67529;DHT22;54366;51.980;5.856;2022-09-03T09:13:29;23.80;38.30
67529;DHT22;54366;51.980;5.856;2022-09-03T09:19:35;24.00;38.30
67529;DHT22;54366;51.980;5.856;2022-09-03T09:22:10;24.20;37.40
67529;DHT22;54366;51.980;5.856;2022-09-03T09:24:42;24.30;37.50
67529;DHT22;54366;51.980;5.856;2022-09-03T09:27:12;24.40;37.70
67529;DHT22;54366;51.980;5.856;2022-09-03T09:29:45;24.50;36.90
67529;DHT22;54366;51.980;5.856;2022-09-03T09:32:14;24.60;37.10
67529;DHT22;54366;51.980;5.856;2022-09-03T09:34:42;24.70;36.90
67529;DHT22;54366;51.980;5.856;2022-09-03T09:37:13;24.90;36.90
67529;DHT22;54366;51.980;5.856;2022-09-03T09:39:52;25.00;36.30
67529;DHT22;54366;51.980;5.856;2022-09-03T09:42:21;25.10;36.10
67529;DHT22;54366;51.980;5.856;2022-09-03T09:44:47;25.30;35.40
67529;DHT22;54366;51.980;5.856;2022-09-03T09:47:27;25.40;35.00
67529;DHT22;54366;51.980;5.856;2022-09-03T09:49:58;25.50;35.10
67529;DHT22;54366;51.980;5.856;2022-09-03T09:52:26;25.60;35.10
67529;DHT22;54366;51.980;5.856;2022-09-03T09:55:06;25.80;35.20
67529;DHT22;54366;51.980;5.856;2022-09-03T09:57:33;25.90;34.70
67529;DHT22;54366;51.980;5.856;2022-09-03T10:00:11;26.00;34.60
67529;DHT22;54366;51.980;5.856;2022-09-03T10:02:39;26.10;34.50
67529;DHT22;54366;51.980;5.856;2022-09-03T10:05:25;26.20;34.40
67529;DHT22;54366;51.980;5.856;2022-09-03T10:08:04;26.30;33.90
67529;DHT22;54366;51.980;5.856;2022-09-03T10:10:33;26.50;33.40
67529;DHT22;54366;51.980;5.856;2022-09-03T10:13:24;26.50;33.40
67529;DHT22;54366;51.980;5.856;2022-09-03T10:16:02;26.60;33.50
67529;DHT22;54366;51.980;5.856;2022-09-03T10:18:52;26.70;33.30
67529;DHT22;54366;51.980;5.856;2022-09-03T10:24:40;27.00;32.80
67529;DHT22;54366;51.980;5.856;2022-09-03T10:27:13;27.10;33.20
67529;DHT22;54366;51.980;5.856;2022-09-03T10:29:41;27.20;32.80
67529;DHT22;54366;51.980;5.856;2022-09-03T10:35:09;27.40;32.10
67529;DHT22;54366;51.980;5.856;2022-09-03T10:40:24;27.60;32.30
67529;DHT22;54366;51.980;5.856;2022-09-03T10:51:35;28.00;31.40
67529;DHT22;54366;51.980;5.856;2022-09-03T10:56:39;28.20;30.60
67529;DHT22;54366;51.980;5.856;2022-09-03T10:59:30;28.30;30.90
67529;DHT22;54366;51.980;5.856;2022-09-03T11:02:37;28.40;30.60
67529;DHT22;54366;51.980;5.856;2022-09-03T11:08:30;28.70;30.00
67529;DHT22;54366;51.980;5.856;2022-09-03T11:13:55;28.90;29.80
67529;DHT22;54366;51.980;5.856;2022-09-03T11:16:30;29.00;29.40
67529;DHT22;54366;51.980;5.856;2022-09-03T11:19:06;29.10;29.70
67529;DHT22;54366;51.980;5.856;2022-09-03T11:21:34;29.20;29.70
67529;DHT22;54366;51.980;5.856;2022-09-03T11:26:42;29.40;29.20
67529;DHT22;54366;51.980;5.856;2022-09-03T11:29:30;29.40;29.40
67529;DHT22;54366;51.980;5.856;2022-09-03T11:32:01;29.60;29.20
67529;DHT22;54366;51.980;5.856;2022-09-03T11:34:31;29.70;29.20
67529;DHT22;54366;51.980;5.856;2022-09-03T11:39:44;30.00;29.20
67529;DHT22;54366;51.980;5.856;2022-09-03T11:42:27;30.10;29.10
67529;DHT22;54366;51.980;5.856;2022-09-03T11:45:00;30.20;28.80
67529;DHT22;54366;51.980;5.856;2022-09-03T11:47:42;30.30;28.90
67529;DHT22;54366;51.980;5.856;2022-09-03T11:50:25;30.40;28.60
67529;DHT22;54366;51.980;5.856;2022-09-03T11:52:53;30.50;28.50
67529;DHT22;54366;51.980;5.856;2022-09-03T11:55:30;30.60;28.40
67529;DHT22;54366;51.980;5.856;2022-09-03T11:58:11;30.60;28.20
67529;DHT22;54366;51.980;5.856;2022-09-03T12:00:40;30.60;28.00
67529;DHT22;54366;51.980;5.856;2022-09-03T12:03:13;30.50;28.00
67529;DHT22;54366;51.980;5.856;2022-09-03T12:14:21;30.70;28.20
67529;DHT22;54366;51.980;5.856;2022-09-03T12:17:13;30.70;28.20
67529;DHT22;54366;51.980;5.856;2022-09-03T12:22:15;30.90;28.10
67529;DHT22;54366;51.980;5.856;2022-09-03T12:24:42;30.90;28.00
67529;DHT22;54366;51.980;5.856;2022-09-03T12:27:21;30.90;28.30
67529;DHT22;54366;51.980;5.856;2022-09-03T12:29:58;31.00;28.40
67529;DHT22;54366;51.980;5.856;2022-09-03T12:32:30;31.10;28.30
67529;DHT22;54366;51.980;5.856;2022-09-03T12:34:57;31.20;28.30
67529;DHT22;54366;51.980;5.856;2022-09-03T12:37:25;31.30;27.90
67529;DHT22;54366;51.980;5.856;2022-09-03T12:39:55;31.30;27.90
67529;DHT22;54366;51.980;5.856;2022-09-03T12:42:27;31.30;27.70
67529;DHT22;54366;51.980;5.856;2022-09-03T12:44:54;31.30;27.90
67529;DHT22;54366;51.980;5.856;2022-09-03T12:47:22;31.30;27.90
67529;DHT22;54366;51.980;5.856;2022-09-03T12:49:51;31.40;28.10
67529;DHT22;54366;51.980;5.856;2022-09-03T12:52:34;31.40;28.10
67529;DHT22;54366;51.980;5.856;2022-09-03T12:55:28;31.50;27.80
67529;DHT22;54366;51.980;5.856;2022-09-03T12:58:23;31.50;27.90
67529;DHT22;54366;51.980;5.856;2022-09-03T13:03:30;31.50;28.10
67529;DHT22;54366;51.980;5.856;2022-09-03T13:06:09;31.50;28.00
67529;DHT22;54366;51.980;5.856;2022-09-03T13:08:47;31.50;28.10
67529;DHT22;54366;51.980;5.856;2022-09-03T13:11:20;31.40;27.90
67529;DHT22;54366;51.980;5.856;2022-09-03T13:27:38;30.90;28.40
67529;DHT22;54366;51.980;5.856;2022-09-03T13:30:12;30.90;28.60
67529;DHT22;54366;51.980;5.856;2022-09-03T13:41:27;30.70;29.20
67529;DHT22;54366;51.980;5.856;2022-09-03T13:49:33;30.60;29.40
67529;DHT22;54366;51.980;5.856;2022-09-03T13:55:11;30.40;29.50
67529;DHT22;54366;51.980;5.856;2022-09-03T13:57:48;30.30;29.60
67529;DHT22;54366;51.980;5.856;2022-09-03T14:00:32;30.30;29.70
67529;DHT22;54366;51.980;5.856;2022-09-03T14:06:23;30.10;29.80
67529;DHT22;54366;51.980;5.856;2022-09-03T14:09:14;30.00;29.70
67529;DHT22;54366;51.980;5.856;2022-09-03T14:12:04;29.90;29.70
67529;DHT22;54366;51.980;5.856;2022-09-03T14:15:00;29.90;29.80
67529;DHT22;54366;51.980;5.856;2022-09-03T14:20:32;29.80;29.40
67529;DHT22;54366;51.980;5.856;2022-09-03T14:23:09;29.70;29.70
67529;DHT22;54366;51.980;5.856;2022-09-03T14:25:35;29.60;29.60
67529;DHT22;54366;51.980;5.856;2022-09-03T14:28:34;29.60;29.70
67529;DHT22;54366;51.980;5.856;2022-09-03T14:36:44;29.70;29.90
67529;DHT22;54366;51.980;5.856;2022-09-03T14:39:21;29.60;29.50
67529;DHT22;54366;51.980;5.856;2022-09-03T14:45:04;29.60;29.50
67529;DHT22;54366;51.980;5.856;2022-09-03T15:01:31;29.40;29.40
67529;DHT22;54366;51.980;5.856;2022-09-03T15:07:08;29.40;29.70
67529;DHT22;54366;51.980;5.856;2022-09-03T15:10:35;29.40;29.70
67529;DHT22;54366;51.980;5.856;2022-09-03T15:13:17;29.40;29.80
67529;DHT22;54366;51.980;5.856;2022-09-03T15:15:51;29.40;29.60
67529;DHT22;54366;51.980;5.856;2022-09-03T15:18:44;29.40;29.60
67529;DHT22;54366;51.980;5.856;2022-09-03T15:21:31;29.40;29.70
67529;DHT22;54366;51.980;5.856;2022-09-03T15:29:48;29.30;29.60
67529;DHT22;54366;51.980;5.856;2022-09-03T15:35:24;29.30;29.50
67529;DHT22;54366;51.980;5.856;2022-09-03T15:38:02;29.40;29.50
67529;DHT22;54366;51.980;5.856;2022-09-03T15:40:36;29.30;29.50
67529;DHT22;54366;51.980;5.856;2022-09-03T15:43:08;29.30;29.80
67529;DHT22;54366;51.980;5.856;2022-09-03T15:51:41;29.20;29.60
67529;DHT22;54366;51.980;5.856;2022-09-03T15:54:15;29.20;30.00
67529;DHT22;54366;51.980;5.856;2022-09-03T15:56:58;29.20;30.00
67529;DHT22;54366;51.980;5.856;2022-09-03T16:02:17;29.10;30.00
67529;DHT22;54366;51.980;5.856;2022-09-03T16:05:00;29.10;30.20
67529;DHT22;54366;51.980;5.856;2022-09-03T16:10:13;29.10;30.40
67529;DHT22;54366;51.980;5.856;2022-09-03T16:23:51;28.80;30.30
67529;DHT22;54366;51.980;5.856;2022-09-03T16:26:30;28.80;30.50
67529;DHT22;54366;51.980;5.856;2022-09-03T16:29:14;28.80;30.90
67529;DHT22;54366;51.980;5.856;2022-09-03T16:31:50;28.70;30.80
67529;DHT22;54366;51.980;5.856;2022-09-03T16:37:24;28.70;31.20
67529;DHT22;54366;51.980;5.856;2022-09-03T16:40:01;28.60;31.00
67529;DHT22;54366;51.980;5.856;2022-09-03T16:48:23;28.50;31.10
67529;DHT22;54366;51.980;5.856;2022-09-03T16:51:15;28.50;31.10
67529;DHT22;54366;51.980;5.856;2022-09-03T16:56:53;28.40;31.30
67529;DHT22;54366;51.980;5.856;2022-09-03T17:05:13;28.20;31.60
67529;DHT22;54366;51.980;5.856;2022-09-03T17:11:02;28.10;31.70
67529;DHT22;54366;51.980;5.856;2022-09-03T17:13:43;28.10;32.10
67529;DHT22;54366;51.980;5.856;2022-09-03T17:24:51;27.90;34.10
67529;DHT22;54366;51.980;5.856;2022-09-03T17:27:55;27.80;34.20
67529;DHT22;54366;51.980;5.856;2022-09-03T17:30:46;27.80;35.10
67529;DHT22;54366;51.980;5.856;2022-09-03T17:33:42;27.70;35.10
67529;DHT22;54366;51.980;5.856;2022-09-03T17:36:24;27.60;35.30
67529;DHT22;54366;51.980;5.856;2022-09-03T17:39:10;27.60;35.50
67529;DHT22;54366;51.980;5.856;2022-09-03T17:41:58;27.50;35.50
67529;DHT22;54366;51.980;5.856;2022-09-03T17:44:57;27.40;36.50
67529;DHT22;54366;51.980;5.856;2022-09-03T17:50:16;27.30;36.20
67529;DHT22;54366;51.980;5.856;2022-09-03T17:52:44;27.30;36.60
67529;DHT22;54366;51.980;5.856;2022-09-03T17:55:32;27.20;36.40
67529;DHT22;54366;51.980;5.856;2022-09-03T17:58:18;27.20;36.80
67529;DHT22;54366;51.980;5.856;2022-09-03T18:03:58;27.00;37.50
67529;DHT22;54366;51.980;5.856;2022-09-03T18:09:31;26.90;37.90
67529;DHT22;54366;51.980;5.856;2022-09-03T18:14:43;26.80;38.30
67529;DHT22;54366;51.980;5.856;2022-09-03T18:20:20;26.60;39.60
67529;DHT22;54366;51.980;5.856;2022-09-03T18:23:22;26.50;39.80
67529;DHT22;54366;51.980;5.856;2022-09-03T18:26:18;26.40;39.90
67529;DHT22;54366;51.980;5.856;2022-09-03T18:29:16;26.30;39.90
67529;DHT22;54366;51.980;5.856;2022-09-03T18:32:04;26.20;40.00
67529;DHT22;54366;51.980;5.856;2022-09-03T18:34:49;26.00;39.90
67529;DHT22;54366;51.980;5.856;2022-09-03T18:37:34;26.00;40.40
67529;DHT22;54366;51.980;5.856;2022-09-03T18:40:26;25.90;40.60
67529;DHT22;54366;51.980;5.856;2022-09-03T18:46:30;25.60;41.30
67529;DHT22;54366;51.980;5.856;2022-09-03T18:49:38;25.50;41.70
67529;DHT22;54366;51.980;5.856;2022-09-03T18:52:47;25.40;41.80
67529;DHT22;54366;51.980;5.856;2022-09-03T19:01:38;25.00;42.60
67529;DHT22;54366;51.980;5.856;2022-09-03T19:04:36;24.90;42.70
67529;DHT22;54366;51.980;5.856;2022-09-03T19:11:27;24.70;43.60
67529;DHT22;54366;51.980;5.856;2022-09-03T19:14:28;24.60;43.50
67529;DHT22;54366;51.980;5.856;2022-09-03T19:20:31;24.40;43.80
67529;DHT22;54366;51.980;5.856;2022-09-03T19:23:18;24.30;43.50
67529;DHT22;54366;51.980;5.856;2022-09-03T19:26:29;24.20;43.40
67529;DHT22;54366;51.980;5.856;2022-09-03T19:42:44;23.60;45.40
67529;DHT22;54366;51.980;5.856;2022-09-03T19:54:42;23.20;46.50
67529;DHT22;54366;51.980;5.856;2022-09-03T19:57:28;23.20;46.80
67529;DHT22;54366;51.980;5.856;2022-09-03T20:00:14;23.10;47.10
67529;DHT22;54366;51.980;5.856;2022-09-03T20:02:59;23.00;47.00
67529;DHT22;54366;51.980;5.856;2022-09-03T20:05:45;23.00;47.60
67529;DHT22;54366;51.980;5.856;2022-09-03T20:08:31;22.90;47.90
67529;DHT22;54366;51.980;5.856;2022-09-03T20:11:18;22.80;48.10
67529;DHT22;54366;51.980;5.856;2022-09-03T20:13:45;22.80;47.70
67529;DHT22;54366;51.980;5.856;2022-09-03T20:30:52;22.30;50.40
67529;DHT22;54366;51.980;5.856;2022-09-03T20:36:08;22.20;49.90
67529;DHT22;54366;51.980;5.856;2022-09-03T20:51:55;21.90;51.10
67529;DHT22;54366;51.980;5.856;2022-09-03T21:10:57;21.60;51.30
67529;DHT22;54366;51.980;5.856;2022-09-03T21:13:40;21.60;51.20
67529;DHT22;54366;51.980;5.856;2022-09-03T21:19:34;21.60;51.00
67529;DHT22;54366;51.980;5.856;2022-09-03T21:22:02;21.60;51.90
67529;DHT22;54366;51.980;5.856;2022-09-03T21:24:34;21.60;51.70
67529;DHT22;54366;51.980;5.856;2022-09-03T21:27:08;21.50;51.60
67529;DHT22;54366;51.980;5.856;2022-09-03T21:29:48;21.60;51.50
67529;DHT22;54366;51.980;5.856;2022-09-03T21:32:21;21.50;51.80
67529;DHT22;54366;51.980;5.856;2022-09-03T21:34:59;21.60;51.70
67529;DHT22;54366;51.980;5.856;2022-09-03T21:37:35;21.50;52.00
67529;DHT22;54366;51.980;5.856;2022-09-03T21:40:03;21.50;51.90
67529;DHT22;54366;51.980;5.856;2022-09-03T21:43:16;21.50;51.90
67529;DHT22;54366;51.980;5.856;2022-09-03T21:45:52;21.50;52.00
67529;DHT22;54366;51.980;5.856;2022-09-03T21:48:27;21.50;51.80
67529;DHT22;54366;51.980;5.856;2022-09-03T21:51:02;21.50;51.80
67529;DHT22;54366;51.980;5.856;2022-09-03T21:53:52;21.50;51.80
67529;DHT22;54366;51.980;5.856;2022-09-03T21:56:29;21.60;51.70
67529;DHT22;54366;51.980;5.856;2022-09-03T22:01:54;21.60;51.40
67529;DHT22;54366;51.980;5.856;2022-09-03T22:04:25;21.60;51.70